Time;durP1;ratioP1;P1;durP2;ratioP2;P2;SDS_P1;SDS_P2;PMS_P1;PMS_P2;Temp;Humidity;BMP_temperature;BMP_pressure;BME280_temperature;BME280_humidity;BME280_pressure;Samples;Min_cycle;Max_cycle;Signal;HPM_P1;HPM_P2
2022/05/27 00:01:23;;;;;;;4.43;1.80;;;;;;;10.88;78.18;97503.31;5012561;28;20141;-70
2022/05/27 00:03:49;;;;;;;;;;;;;;;10.86;78.45;97508.47;5012996;28;20060;-70
2022/05/27 00:06:16;;;;;;;4.38;1.90;;;;;;;10.88;78.18;97493.00;5012418;28;19925;-71
2022/05/27 00:08:44;;;;;;;3.90;1.80;;;;;;;10.91;77.68;97508.13;5012606;28;20053;-70
2022/05/27 00:11:12;;;;;;;3.10;1.65;;;;;;;10.95;78.27;97504.19;5012643;28;20050;-70
2022/05/27 00:13:40;;;;;;;2.80;1.80;;;;;;;11.02;78.19;97500.69;5012748;28;20057;-69
2022/05/27 00:16:08;;;;;;;2.47;1.50;;;;;;;11.04;77.92;97504.66;5012515;28;20050;-72
2022/05/27 00:18:35;;;;;;;6.47;1.83;;;;;;;11.13;77.74;97503.53;5013631;28;20050;-74
2022/05/27 00:21:03;;;;;;;2.53;1.30;;;;;;;11.22;77.20;97490.09;5014963;28;20050;-75
2022/05/27 00:23:31;;;;;;;9.43;1.70;;;;;;;11.19;77.67;97497.22;5016771;28;20390;-73
2022/05/27 00:25:58;;;;;;;3.08;1.50;;;;;;;11.19;77.21;97496.44;5016166;28;20157;-74
2022/05/27 00:28:26;;;;;;;5.32;1.77;;;;;;;11.25;77.03;97503.25;5016494;28;20402;-76
2022/05/27 00:30:53;;;;;;;2.50;1.50;;;;;;;11.23;77.09;97492.50;5016353;28;20077;-74
2022/05/27 00:33:20;;;;;;;3.10;1.55;;;;;;;11.20;77.17;97493.25;5016276;28;20053;-74
2022/05/27 00:35:47;;;;;;;3.80;1.33;;;;;;;11.19;77.06;97497.22;5014647;28;20140;-70
2022/05/27 00:38:15;;;;;;;2.95;1.55;;;;;;;11.26;76.76;97491.72;5016354;28;20119;-71
2022/05/27 00:40:44;;;;;;;7.18;1.55;;;;;;;11.24;76.89;97493.28;5015868;28;20133;-71
2022/05/27 00:43:12;;;;;;;2.75;1.50;;;;;;;11.28;76.71;97494.88;5016511;28;20142;-74
2022/05/27 00:45:43;;;;;;;3.08;1.90;;;;;;;11.32;76.34;97498.53;5014690;28;20136;-77
2022/05/27 00:48:18;;;;;;;2.30;1.50;;;;;;;11.38;76.35;97496.97;5016523;28;20054;-74
2022/05/27 00:50:47;;;;;;;2.28;1.45;;;;;;;11.35;76.48;97500.53;5015905;28;20524;-74
2022/05/27 00:53:20;;;;;;;2.67;1.40;;;;;;;11.29;76.15;97504.06;5016141;28;20054;-74
2022/05/27 00:55:50;;;;;;;2.10;1.40;;;;;;;11.27;76.60;97498.88;5015681;28;20056;-73
2022/05/27 00:58:25;;;;;;;4.22;1.55;;;;;;;11.28;75.69;97506.03;5014709;28;20600;-73
2022/05/27 01:00:52;;;;;;;3.85;1.30;;;;;;;11.27;76.05;97493.31;5015628;28;20145;-74
2022/05/27 01:03:20;;;;;;;3.35;1.40;;;;;;;11.29;75.98;97516.00;5015512;28;20046;-73
2022/05/27 01:05:47;;;;;;;3.10;1.25;;;;;;;11.25;76.64;97506.78;5015304;28;20124;-77
2022/05/27 01:08:19;;;;;;;2.83;1.60;;;;;;;11.26;76.33;97502.84;5015633;28;20054;-74
2022/05/27 01:10:53;;;;;;;2.20;1.17;;;;;;;11.24;76.27;97498.84;5015326;28;20137;-74
2022/05/27 01:13:26;;;;;;;4.00;2.35;;;;;;;11.16;76.04;97494.41;5015766;28;20042;-74
2022/05/27 01:16:25;;;;;;;2.38;1.40;;;;;;;11.10;76.15;97510.66;5015540;28;20053;-76
2022/05/27 01:22:39;;;;;;;2.17;1.27;;;;;;;11.11;76.15;97506.72;5014947;28;20099;-76
2022/05/27 01:25:52;;;;;;;2.25;1.02;;;;;;;11.13;76.44;97503.53;5013531;28;20056;-73
2022/05/27 01:28:57;;;;;;;3.53;1.52;;;;;;;11.10;76.66;97499.53;5015069;28;20409;-73
2022/05/27 01:31:23;;;;;;;2.75;1.30;;;;;;;11.13;76.14;97498.75;4999906;28;20050;-74
2022/05/27 01:34:24;;;;;;;2.35;1.30;;;;;;;11.17;76.46;97488.47;4995888;28;20498;-73
2022/05/27 01:37:06;;;;;;;2.33;1.07;;;;;;;11.16;76.37;97492.41;4995308;28;20514;-78
2022/05/27 01:39:50;;;;;;;4.82;1.20;;;;;;;11.08;76.51;97490.78;5000376;28;20644;-73
2022/05/27 01:42:23;;;;;;;2.40;1.30;;;;;;;11.02;76.71;97498.66;5014977;28;20076;-75
2022/05/27 01:45:07;;;;;;;1.70;1.23;;;;;;;10.94;77.41;97496.22;5015040;28;20058;-77
2022/05/27 01:47:40;;;;;;;2.63;1.45;;;;;;;11.00;76.31;97503.03;5014647;28;20054;-74
2022/05/27 01:50:22;;;;;;;2.15;1.40;;;;;;;11.07;76.44;97503.09;5014810;28;20058;-77
2022/05/27 01:53:05;;;;;;;2.33;1.25;;;;;;;11.05;76.35;97502.69;5014698;28;20050;-73
2022/05/27 01:55:49;;;;;;;2.28;1.20;;;;;;;11.07;76.50;97512.25;5014481;28;20052;-77
2022/05/27 01:58:35;;;;;;;3.25;1.33;;;;;;;11.12;76.03;97513.88;5014942;28;20057;-74
2022/05/27 02:01:07;;;;;;;4.30;1.30;;;;;;;11.06;76.25;97498.72;5014505;28;20085;-78
2022/05/27 02:03:46;;;;;;;1.75;1.10;;;;;;;11.13;75.84;97509.09;5013713;28;20072;-74
2022/05/27 02:06:30;;;;;;;2.25;1.50;;;;;;;11.10;75.45;97505.91;5014718;28;20092;-74
2022/05/27 02:09:05;;;;;;;1.77;1.20;;;;;;;11.05;76.14;97494.34;5014500;28;20046;-77
2022/05/27 02:11:33;;;;;;;2.25;1.35;;;;;;;11.07;75.91;97497.50;5014579;28;20054;-75
2022/05/27 02:14:06;;;;;;;2.20;1.30;;;;;;;11.10;75.99;97493.97;5014279;28;20133;-77
2022/05/27 02:16:45;;;;;;;4.13;1.95;;;;;;;11.11;75.89;97495.59;5029240;28;20050;-75
2022/05/27 02:19:35;;;;;;;4.68;2.45;;;;;;;11.18;75.72;97490.06;5014395;28;20050;-74
2022/05/27 02:22:23;;;;;;;3.93;2.63;;;;;;;11.25;75.12;97492.88;5013879;28;20057;-77
2022/05/27 02:25:00;;;;;;;4.93;3.13;;;;;;;11.29;75.21;97488.16;5029697;28;20385;-74
2022/05/27 02:27:56;;;;;;;9.25;4.13;;;;;;;11.28;75.62;97494.13;4996376;28;20061;-75
2022/05/27 02:30:29;;;;;;;6.05;4.15;;;;;;;11.28;75.26;97503.25;4968988;28;20060;-73
2022/05/27 02:36:12;;;;;;;3.22;2.03;;;;;;;11.28;75.42;97497.69;4994420;28;20513;-74
2022/05/27 02:38:39;;;;;;;2.78;1.70;;;;;;;11.33;75.21;97494.53;4994157;28;20061;-74
2022/05/27 02:42:05;;;;;;;3.50;1.77;;;;;;;11.38;74.76;97494.19;5011734;28;20096;-75
2022/05/27 02:45:00;;;;;;;2.00;1.27;;;;;;;11.34;75.20;97496.13;4908042;29;20063;-74
2022/05/27 02:47:30;;;;;;;3.00;1.70;;;;;;;11.27;75.57;97490.53;5013860;28;20076;-73
2022/05/27 02:50:10;;;;;;;4.37;1.97;;;;;;;11.30;75.14;97497.28;5013736;28;20136;-73
2022/05/27 02:53:42;;;;;;;3.70;2.28;;;;;;;11.36;74.70;97499.34;5012606;28;20399;-74
2022/05/27 02:56:25;;;;;;;4.93;3.28;;;;;;;11.33;74.81;97491.75;4912152;28;20054;-73
2022/05/27 02:58:54;;;;;;;5.38;3.55;;;;;;;11.31;74.39;97496.91;5010093;28;20058;-77
2022/05/27 03:01:21;;;;;;;6.82;4.43;;;;;;;11.23;74.46;97495.28;5013837;28;20049;-73
2022/05/27 03:03:49;;;;;;;7.10;4.53;;;;;;;11.22;74.83;97502.00;5013577;28;20489;-76
2022/05/27 03:06:15;;;;;;;11.13;5.32;;;;;;;11.25;74.67;97506.03;5013420;28;20050;-74
2022/05/27 03:08:51;;;;;;;7.70;4.50;;;;;;;11.29;74.72;97495.69;5028611;28;20061;-73
2022/05/27 03:11:47;;;;;;;5.70;4.07;;;;;;;11.23;74.89;97498.06;5013296;28;20054;-75
2022/05/27 03:14:41;;;;;;;7.70;4.85;;;;;;;11.22;74.70;97496.44;5013955;28;20052;-73
2022/05/27 03:17:29;;;;;;;8.30;4.75;;;;;;;11.31;74.70;97504.47;4998177;28;20051;-74
2022/05/27 03:20:26;;;;;;;7.32;4.05;;;;;;;11.32;74.68;97501.31;4993941;28;20042;-74
2022/05/27 03:23:07;;;;;;;4.80;2.55;;;;;;;11.25;74.56;97501.22;4993739;28;20076;-72
2022/05/27 03:25:50;;;;;;;4.35;2.72;;;;;;;11.15;74.53;97501.97;4993551;28;20542;-77
2022/05/27 03:28:22;;;;;;;5.22;3.00;;;;;;;11.11;75.31;97501.91;4993333;28;20054;-74
2022/05/27 03:31:17;;;;;;;5.75;3.10;;;;;;;11.11;74.96;97495.59;4993378;28;20050;-74
2022/05/27 03:33:55;;;;;;;6.95;3.40;;;;;;;11.13;75.08;97501.53;4993653;28;20070;-74
2022/05/27 03:36:50;;;;;;;8.38;4.03;;;;;;;11.12;75.03;97499.94;4993439;28;20524;-76
2022/05/27 03:39:37;;;;;;;5.93;3.65;;;;;;;11.11;74.85;97496.34;4969876;28;20058;-77
2022/05/27 03:42:08;;;;;;;8.35;3.85;;;;;;;11.08;74.72;97497.13;5013107;28;20092;-74
2022/05/27 03:44:35;;;;;;;6.15;3.40;;;;;;;11.10;75.42;97493.97;5013066;28;20050;-76
2022/05/27 03:47:03;;;;;;;6.63;2.92;;;;;;;11.12;74.86;97502.72;5012978;28;20049;-74
2022/05/27 03:49:31;;;;;;;6.40;2.80;;;;;;;11.13;75.09;97509.88;5012950;28;20140;-74
2022/05/27 03:52:06;;;;;;;5.53;2.10;;;;;;;11.17;74.30;97496.81;5012618;28;20060;-75
2022/05/27 03:54:34;;;;;;;4.05;2.13;;;;;;;11.13;74.86;97498.75;5015334;28;20053;-74
2022/05/27 03:57:01;;;;;;;3.92;2.22;;;;;;;11.13;75.18;97498.75;5016788;28;20061;-74
2022/05/27 03:59:28;;;;;;;5.75;2.40;;;;;;;11.22;75.18;97507.56;5017288;28;20057;-77
2022/05/27 04:01:57;;;;;;;4.60;2.47;;;;;;;11.30;74.99;97500.88;5016659;28;20133;-77
2022/05/27 04:04:28;;;;;;;3.47;1.63;;;;;;;11.33;74.10;97497.31;5016823;28;20140;-73
2022/05/27 04:06:56;;;;;;;5.70;2.80;;;;;;;11.28;74.97;97500.47;5005279;28;20061;-74
2022/05/27 04:09:25;;;;;;;6.95;2.30;;;;;;;11.32;74.77;97501.31;4996753;28;20054;-74
2022/05/27 04:11:54;;;;;;;8.88;2.55;;;;;;;11.34;74.27;97498.13;4997184;28;20050;-74
2022/05/27 04:14:21;;;;;;;4.22;2.67;;;;;;;11.37;74.62;97498.13;4995956;28;20056;-75
2022/05/27 04:16:48;;;;;;;4.75;1.90;;;;;;;11.45;74.79;97496.19;4996793;28;20050;-74
2022/05/27 04:19:17;;;;;;;3.65;2.20;;;;;;;11.52;74.26;97488.69;4997024;28;20054;-77
2022/05/27 04:21:46;;;;;;;3.08;1.80;;;;;;;11.60;74.21;97495.13;4997102;28;20049;-76
2022/05/27 04:24:13;;;;;;;3.38;2.13;;;;;;;11.57;74.16;97495.91;4997009;28;20046;-74
2022/05/27 04:26:40;;;;;;;4.65;1.92;;;;;;;11.55;74.55;97498.28;4996784;28;20046;-75
2022/05/27 04:29:07;;;;;;;4.55;2.20;;;;;;;11.53;73.97;97504.22;4996933;28;20046;-75
2022/05/27 04:31:34;;;;;;;2.70;1.65;;;;;;;11.52;74.21;97502.63;4996613;28;20050;-74
2022/05/27 04:34:06;;;;;;;3.10;1.83;;;;;;;11.52;74.17;97510.97;4996867;28;20096;-74
2022/05/27 04:36:33;;;;;;;3.00;1.88;;;;;;;11.49;74.40;97505.41;4996681;28;20077;-78
2022/05/27 04:39:00;;;;;;;2.70;1.70;;;;;;;11.52;74.26;97513.75;4996657;28;20501;-74
2022/05/27 04:41:27;;;;;;;2.88;1.80;;;;;;;11.57;74.22;97507.81;4995313;28;20053;-77
2022/05/27 04:43:54;;;;;;;3.45;2.13;;;;;;;11.66;73.70;97508.31;4996666;28;20128;-77
2022/05/27 04:46:21;;;;;;;3.97;2.28;;;;;;;11.64;73.46;97495.97;4996446;28;20497;-73
2022/05/27 04:48:49;;;;;;;2.90;1.90;;;;;;;11.74;73.61;97506.38;4996524;28;20050;-72
2022/05/27 04:51:16;;;;;;;3.25;2.05;;;;;;;11.80;73.66;97504.81;4994776;28;20506;-72
2022/05/27 04:53:43;;;;;;;3.97;2.08;;;;;;;11.87;73.75;97500.06;4996211;28;20498;-71
2022/05/27 04:56:11;;;;;;;4.03;2.33;;;;;;;11.90;72.91;97504.84;4994531;28;20061;-73
2022/05/27 04:58:38;;;;;;;3.17;2.17;;;;;;;11.95;73.03;97507.28;5001860;28;20054;-72
2022/05/27 05:01:05;;;;;;;5.15;1.83;;;;;;;11.96;73.52;97508.88;5015623;28;20425;-71
2022/05/27 05:03:32;;;;;;;3.58;1.98;;;;;;;11.90;73.59;97504.84;5015549;28;20070;-72
2022/05/27 05:05:58;;;;;;;3.55;2.35;;;;;;;11.89;73.50;97502.47;5015508;28;20532;-71
2022/05/27 05:08:38;;;;;;;3.03;1.95;;;;;;;11.93;73.19;97501.28;5014813;28;20152;-71
2022/05/27 05:11:06;;;;;;;5.78;2.50;;;;;;;11.90;73.49;97515.22;5015125;28;20084;-72
2022/05/27 05:13:34;;;;;;;3.97;2.65;;;;;;;11.99;72.99;97508.09;5015580;28;20053;-72
2022/05/27 05:16:03;;;;;;;5.00;2.65;;;;;;;12.00;72.61;97504.13;5014010;28;20144;-72
2022/05/27 05:18:30;;;;;;;5.33;2.87;;;;;;;12.02;72.61;97512.88;5015132;28;20080;-72
2022/05/27 05:20:57;;;;;;;8.05;2.30;;;;;;;11.99;72.66;97516.44;5015464;28;20152;-76
2022/05/27 05:23:24;;;;;;;6.45;2.88;;;;;;;11.88;72.87;97503.66;5015587;28;20547;-74
2022/05/27 05:25:51;;;;;;;4.90;3.40;;;;;;;11.91;73.02;97520.41;5015261;28;20060;-70
2022/05/27 05:28:19;;;;;;;2.85;2.13;;;;;;;11.97;72.52;97526.38;5015293;28;20087;-70
2022/05/27 05:30:46;;;;;;;4.57;2.40;;;;;;;11.91;72.97;97520.41;5002895;28;20058;-71
2022/05/27 05:33:13;;;;;;;4.93;2.60;;;;;;;12.04;72.43;97521.66;4995551;28;20497;-69
2022/05/27 05:35:40;;;;;;;3.33;2.20;;;;;;;12.05;72.03;97525.25;4995318;28;20055;-72
2022/05/27 05:38:07;;;;;;;5.15;2.72;;;;;;;12.10;71.59;97525.66;4995305;28;20051;-72
2022/05/27 05:40:34;;;;;;;3.25;2.25;;;;;;;12.40;70.83;97533.72;4995746;28;20058;-71
2022/05/27 05:43:01;;;;;;;3.80;2.03;;;;;;;12.70;69.99;97521.06;4995377;28;20053;-70
2022/05/27 05:45:29;;;;;;;4.47;2.05;;;;;;;12.89;69.11;97523.50;4995331;28;20146;-71
2022/05/27 05:47:56;;;;;;;4.47;2.08;;;;;;;13.31;67.90;97538.72;4998901;28;20064;-74
2022/05/27 05:50:24;;;;;;;4.95;2.20;;;;;;;13.60;67.43;97521.53;5014736;28;20056;-71
2022/05/27 05:52:51;;;;;;;3.70;2.38;;;;;;;13.67;67.43;97527.13;5014610;28;20054;-74
2022/05/27 05:55:18;;;;;;;3.05;2.08;;;;;;;13.62;67.24;97526.72;5014392;28;20148;-71
2022/05/27 05:57:48;;;;;;;6.25;2.30;;;;;;;13.44;67.75;97525.97;5014340;28;20517;-71
2022/05/27 06:00:20;;;;;;;5.00;2.03;;;;;;;13.32;67.85;97537.53;5014902;28;20413;-72
2022/05/27 06:02:47;;;;;;;2.85;1.90;;;;;;;13.28;67.65;97534.72;5014741;28;20133;-73
2022/05/27 06:05:14;;;;;;;1039.40;78.07;;;;;;;13.23;67.11;97542.72;5014587;28;20054;-72
2022/05/27 06:07:42;;;;;;;4.40;2.30;;;;;;;13.28;67.13;97545.09;5014640;28;20050;-70
2022/05/27 06:10:11;;;;;;;2.85;1.80;;;;;;;13.20;66.75;97540.72;5014254;28;20048;-71
2022/05/27 06:12:39;;;;;;;2.43;1.70;;;;;;;13.16;67.12;97542.69;5014419;28;20535;-70
2022/05/27 06:15:09;;;;;;;8.95;1.30;;;;;;;13.20;66.34;97544.28;5014333;28;20053;-71
2022/05/27 06:17:37;;;;;;;1.90;1.40;;;;;;;13.15;66.07;97541.91;5013858;28;20390;-71
2022/05/27 06:20:05;;;;;;;2.35;1.27;;;;;;;13.15;65.33;97553.09;5014275;28;20505;-71
2022/05/27 06:22:32;;;;;;;1.65;1.20;;;;;;;13.18;65.15;97548.69;5014015;28;20456;-70
2022/05/27 06:25:00;;;;;;;2.13;1.40;;;;;;;13.31;64.71;97553.47;5014420;28;20069;-71
2022/05/27 06:27:28;;;;;;;2.63;1.63;;;;;;;13.57;64.32;97546.69;5001358;28;20061;-71
2022/05/27 06:35:27;;;;;;;3.55;1.50;;;;;;;13.13;65.03;97551.88;4994661;28;20050;-70
2022/05/27 06:37:54;;;;;;;4.78;1.83;;;;;;;13.28;64.85;97562.66;5004547;28;20045;-71
2022/05/27 06:40:21;;;;;;;4.40;1.73;;;;;;;13.29;64.86;97561.44;5013890;28;20564;-71
2022/05/27 06:42:48;;;;;;;7.95;1.88;;;;;;;13.16;64.92;97567.81;5013950;28;20445;-71
2022/05/27 06:45:15;;;;;;;10.40;2.33;;;;;;;13.09;65.20;97565.03;5029429;28;20144;-68
2022/05/27 06:47:42;;;;;;;3.40;1.73;;;;;;;12.97;65.14;97568.97;5013834;28;20049;-70
2022/05/27 06:50:10;;;;;;;3.22;1.60;;;;;;;13.08;64.74;97577.41;5013569;28;20508;-71
2022/05/27 06:52:37;;;;;;;3.05;1.60;;;;;;;13.34;64.10;97572.22;5013715;28;20046;-70
2022/05/27 06:55:04;;;;;;;3.05;1.95;;;;;;;13.70;63.13;97571.03;5013671;28;20042;-73
2022/05/27 06:57:33;;;;;;;22.52;2.63;;;;;;;15.07;60.10;97566.94;5012005;28;20097;-71
2022/05/27 07:00:01;;;;;;;2.65;1.50;;;;;;;16.11;57.06;97568.06;5013922;28;20160;-71
2022/05/27 07:02:29;;;;;;;2.70;1.48;;;;;;;16.29;56.13;97567.91;5013440;28;20049;-71
2022/05/27 07:04:56;;;;;;;4.82;2.00;;;;;;;17.19;54.26;97575.56;5013603;28;20132;-74
2022/05/27 07:07:29;;;;;;;3.50;1.33;;;;;;;17.83;52.47;97576.97;5013709;28;20050;-74
2022/05/27 07:09:56;;;;;;;4.85;1.90;;;;;;;17.64;52.55;97572.06;5011933;28;20077;-71
2022/05/27 07:12:23;;;;;;;2.13;1.20;;;;;;;17.06;52.98;97580.16;5013310;28;20064;-72
2022/05/27 07:14:50;;;;;;;2.03;1.30;;;;;;;16.57;53.64;97567.56;5013286;28;20038;-72
2022/05/27 07:17:16;;;;;;;2.00;1.30;;;;;;;16.26;54.89;97577.91;5011936;28;20099;-72
2022/05/27 07:19:44;;;;;;;4.65;1.65;;;;;;;15.96;54.98;97575.03;5013487;28;20080;-71
2022/05/27 07:22:11;;;;;;;2.75;1.45;;;;;;;15.36;55.94;97577.53;5012835;28;20058;-72
2022/05/27 07:24:39;;;;;;;2.53;1.58;;;;;;;15.01;56.60;97586.16;5012898;28;20052;-74
2022/05/27 07:27:07;;;;;;;1.90;1.33;;;;;;;14.85;57.16;97574.66;5012768;28;20081;-75
2022/05/27 07:29:34;;;;;;;2.97;1.80;;;;;;;14.84;57.58;97575.88;5012512;28;20137;-74
2022/05/27 07:32:02;;;;;;;3.25;1.80;;;;;;;15.20;56.60;97566.06;5013030;28;20073;-74
2022/05/27 07:34:30;;;;;;;5.65;1.85;;;;;;;16.22;54.71;97567.94;5012773;28;20046;-74
2022/05/27 07:36:57;;;;;;;4.07;1.70;;;;;;;17.10;52.01;97572.47;5012729;28;20085;-73
2022/05/27 07:39:24;;;;;;;2.35;1.50;;;;;;;18.26;49.45;97579.03;5012666;28;20413;-73
2022/05/27 07:41:51;;;;;;;2.45;1.67;;;;;;;20.16;45.91;97567.88;5013252;28;20049;-74
2022/05/27 07:44:19;;;;;;;2.00;1.35;;;;;;;24.03;38.54;97569.63;5012951;28;20042;-73
2022/05/27 07:46:46;;;;;;;2.20;1.15;;;;;;;24.26;37.63;97569.06;5012578;28;20394;-75
2022/05/27 07:49:13;;;;;;;2.67;1.40;;;;;;;23.05;39.42;97563.78;5012626;28;20072;-76
2022/05/27 07:51:59;;;;;;;2.85;1.30;;;;;;;21.80;40.87;97572.72;5012654;28;20084;-74
2022/05/27 07:54:26;;;;;;;2.95;1.35;;;;;;;20.08;44.02;97577.78;5013621;28;20050;-74
2022/05/27 07:56:53;;;;;;;2.80;1.83;;;;;;;18.92;46.18;97576.91;5012449;28;20058;-74
2022/05/27 07:59:20;;;;;;;2.70;1.40;;;;;;;18.17;47.37;97582.38;5013062;28;20579;-74
2022/05/27 08:01:47;;;;;;;33.08;2.95;;;;;;;19.02;45.78;97582.31;5013201;28;20054;-76
2022/05/27 08:04:14;;;;;;;12.50;2.00;;;;;;;21.61;40.70;97590.69;5013546;28;20041;-77
2022/05/27 08:06:42;;;;;;;9.68;2.00;;;;;;;24.15;36.43;97577.22;5011145;28;20046;-76
2022/05/27 08:09:15;;;;;;;2.63;1.80;;;;;;;23.59;36.27;97586.00;5012961;28;20081;-74
2022/05/27 08:11:42;;;;;;;2.38;1.40;;;;;;;22.87;36.90;97592.03;5013661;28;20054;-76
2022/05/27 08:14:09;;;;;;;4.28;1.73;;;;;;;21.33;39.32;97575.44;5013624;28;20041;-75
2022/05/27 08:16:39;;;;;;;4.57;1.80;;;;;;;20.36;41.55;97587.53;5012848;28;20045;-72
2022/05/27 08:19:06;;;;;;;;;;;;;;;20.06;42.52;97579.44;5012734;28;20041;-72
2022/05/27 08:21:36;;;;;;;2.15;1.52;;;;;;;19.16;43.76;97587.63;5012529;28;19971;-72
2022/05/27 08:24:04;;;;;;;3.90;1.38;;;;;;;18.17;45.76;97599.28;5012661;28;20108;-71
2022/05/27 08:26:32;;;;;;;11.55;6.40;;;;;;;17.59;47.40;97597.06;5010966;28;20144;-72
2022/05/27 08:28:59;;;;;;;6.40;1.92;;;;;;;17.43;48.22;97600.53;5012732;28;20046;-72
2022/05/27 08:31:26;;;;;;;213.32;14.05;;;;;;;17.21;48.95;97590.78;5012293;28;20603;-72
2022/05/27 08:39:46;;;;;;;5.32;1.90;;;;;;;18.86;46.18;97590.69;5008014;28;20085;-71
2022/05/27 08:42:31;;;;;;;5.60;1.73;;;;;;;19.99;43.57;97595.31;4994700;28;20425;-71
2022/05/27 08:45:20;;;;;;;5.50;1.52;;;;;;;18.98;45.36;97592.84;4996364;28;20125;-71
2022/05/27 08:47:56;;;;;;;5.55;1.88;;;;;;;18.38;46.90;97596.09;4996646;28;20152;-71
2022/05/27 08:50:47;;;;;;;3.78;1.92;;;;;;;17.66;47.84;97596.94;4995869;28;20473;-71
2022/05/27 08:53:18;;;;;;;2.53;1.70;;;;;;;17.00;49.26;97598.72;4995530;28;20046;-73
2022/05/27 09:01:36;;;;;;;4.93;1.98;;;;;;;15.84;51.08;97614.03;4996316;28;20146;-71
2022/05/27 09:04:21;;;;;;;3.60;1.80;;;;;;;15.55;51.84;97609.84;5010879;28;20513;-71
2022/05/27 09:07:02;;;;;;;2.35;1.70;;;;;;;15.27;52.16;97618.41;4996090;28;20062;-71
2022/05/27 09:09:31;;;;;;;8.55;2.20;;;;;;;15.12;52.39;97625.31;5003822;28;20461;-71
2022/05/27 09:12:16;;;;;;;6.07;2.65;;;;;;;15.10;52.95;97622.91;5015168;28;20093;-71
2022/05/27 09:14:57;;;;;;;4.68;2.85;;;;;;;15.07;53.52;97623.72;5010816;28;20065;-71
2022/05/27 09:17:48;;;;;;;3.47;1.95;;;;;;;14.82;54.45;97634.28;4996014;28;20047;-71
2022/05/27 09:20:38;;;;;;;4.80;1.95;;;;;;;14.55;55.74;97630.38;4995567;28;20062;-72
2022/05/27 09:23:14;;;;;;;3.35;2.17;;;;;;;14.68;55.92;97637.13;4995743;28;20498;-71
2022/05/27 09:25:54;;;;;;;4.47;2.30;;;;;;;15.74;53.92;97628.91;4995742;28;20066;-71
2022/05/27 09:28:45;;;;;;;6.95;2.10;;;;;;;16.22;52.61;97624.88;4995672;28;20050;-71
2022/05/27 09:31:18;;;;;;;5.63;2.15;;;;;;;16.34;53.21;97618.72;4995304;28;20106;-72
2022/05/27 09:33:46;;;;;;;5.90;2.63;;;;;;;16.55;52.63;97619.75;4995112;28;20534;-72
2022/05/27 09:36:18;;;;;;;2.78;1.70;;;;;;;17.74;50.19;97626.56;4995668;28;20050;-71
2022/05/27 09:38:55;;;;;;;8.57;2.08;;;;;;;18.44;48.82;97628.16;5008183;28;20115;-71
2022/05/27 09:41:38;;;;;;;4.72;1.90;;;;;;;18.66;48.21;97625.72;5015291;28;20058;-70
2022/05/27 09:44:31;;;;;;;2.65;1.80;;;;;;;18.05;48.03;97625.22;5029967;28;20056;-71
2022/05/27 09:46:58;;;;;;;4.28;1.92;;;;;;;17.47;48.85;97617.34;5015161;28;20050;-72
2022/05/27 09:49:25;;;;;;;7.65;1.65;;;;;;;17.00;50.19;97612.75;5015131;28;20048;-72
2022/05/27 09:51:52;;;;;;;7.47;2.67;;;;;;;16.66;50.92;97626.81;5013705;28;20408;-71
2022/05/27 09:54:39;;;;;;;7.32;1.90;;;;;;;16.44;51.91;97634.69;5013336;28;20460;-72
2022/05/27 09:57:10;;;;;;;7.03;2.00;;;;;;;16.28;52.07;97637.22;5014416;28;20069;-71
2022/05/27 09:59:44;;;;;;;4.80;2.00;;;;;;;16.06;52.27;97646.28;5014408;28;20053;-71
2022/05/27 10:02:22;;;;;;;2.17;1.35;;;;;;;15.77;53.19;97642.09;5014565;28;20068;-71
2022/05/27 10:04:52;;;;;;;3.53;1.70;;;;;;;15.49;54.48;97651.53;5013688;28;20405;-72
2022/05/27 10:07:37;;;;;;;2.78;1.75;;;;;;;15.55;54.58;97647.09;5111297;27;20746;-72
2022/05/27 10:10:30;;;;;;;2.65;1.20;;;;;;;15.35;55.34;97671.22;5095430;28;20072;-71
2022/05/27 10:13:14;;;;;;;1.90;1.20;;;;;;;15.14;55.74;97667.72;5090473;28;20048;-71
2022/05/27 10:15:41;;;;;;;2.72;1.20;;;;;;;15.17;56.22;97678.09;5090015;28;20507;-71
2022/05/27 10:18:22;;;;;;;2.17;1.10;;;;;;;15.02;57.16;97683.00;5090002;28;20550;-71
2022/05/27 10:21:03;;;;;;;4.78;1.20;;;;;;;14.97;57.36;97672.19;5090046;28;20044;-72
2022/05/27 10:23:35;;;;;;;4.90;1.20;;;;;;;15.01;57.51;97689.00;5089882;28;20131;-72
2022/05/27 10:26:25;;;;;;;4.10;1.02;;;;;;;14.85;57.86;97697.84;5094224;28;20109;-72
2022/05/27 10:28:57;;;;;;;2.65;1.30;;;;;;;14.58;59.39;97697.53;5110228;28;20051;-72
2022/05/27 10:31:24;;;;;;;4.03;1.38;;;;;;;14.30;60.68;97710.78;5109634;28;20142;-71
2022/05/27 10:33:53;;;;;;;1.50;0.75;;;;;;;13.93;61.91;97715.94;5110155;28;20414;-71
2022/05/27 10:36:23;;;;;;;1.55;0.90;;;;;;;13.69;62.09;97705.53;5109977;28;20138;-71
2022/05/27 10:39:17;;;;;;;2.20;1.23;;;;;;;13.51;62.36;97710.31;5110124;28;20411;-72
2022/05/27 10:42:09;;;;;;;5.07;1.00;;;;;;;13.33;62.93;97715.06;5109810;28;20072;-72
2022/05/27 10:45:06;;;;;;;2.85;0.80;;;;;;;13.12;63.17;97706.59;5110807;28;20040;-71
2022/05/27 10:47:45;;;;;;;3.95;0.88;;;;;;;12.99;63.38;97694.19;5110121;28;20055;-71
2022/05/27 10:50:18;;;;;;;1.27;0.70;;;;;;;12.99;63.51;97696.97;5108407;28;20141;-71
2022/05/27 10:53:02;;;;;;;7.53;6.78;;;;;;;12.97;63.75;97690.97;5109469;28;20084;-71
2022/05/27 10:55:37;;;;;;;1.65;0.90;;;;;;;12.99;63.70;97696.97;5109884;28;20457;-71
2022/05/27 11:04:34;;;;;;;2.20;0.88;;;;;;;13.25;63.07;97705.03;5097878;28;20048;-70
2022/05/27 11:07:01;;;;;;;2.47;0.98;;;;;;;13.40;62.57;97701.91;5108617;28;20056;-69
2022/05/27 11:09:36;;;;;;;3.30;1.17;;;;;;;13.72;62.22;97710.34;5096502;28;20044;-75
2022/05/27 11:12:20;;;;;;;3.70;1.52;;;;;;;14.10;61.59;97703.97;5094124;28;20040;-68
2022/05/27 11:15:12;;;;;;;4.93;1.70;;;;;;;14.60;60.62;97705.53;5106599;28;20079;-73
2022/05/27 11:17:57;;;;;;;3.15;1.10;;;;;;;15.04;60.10;97702.97;5082817;28;20040;-70
2022/05/27 11:21:00;;;;;;;25.88;2.05;;;;;;;15.39;59.91;97691.63;5075191;28;20087;-73
2022/05/27 11:23:55;;;;;;;5.72;1.42;;;;;;;15.63;59.68;97690.66;5042174;28;20060;-72
2022/05/27 11:26:32;;;;;;;7.30;1.42;;;;;;;15.79;59.06;97698.56;5078749;28;20052;-72
2022/05/27 11:29:08;;;;;;;3.50;1.42;;;;;;;15.90;59.63;97688.09;5081425;28;20075;-73
2022/05/27 11:32:16;;;;;;;3.60;1.98;;;;;;;16.14;59.11;97693.47;5086010;28;20062;-77
2022/05/27 11:35:07;;;;;;;6.25;2.38;;;;;;;16.26;59.15;97690.16;5010169;28;20149;-78
2022/05/27 11:37:39;;;;;;;2.50;1.40;;;;;;;16.38;58.91;97695.25;5003738;28;20138;-72
2022/05/27 11:40:15;;;;;;;1.73;1.10;;;;;;;16.34;58.97;97690.88;5063330;28;20060;-72
2022/05/27 11:43:10;;;;;;;5.75;1.42;;;;;;;15.91;59.49;97698.09;5082873;28;20048;-72
2022/05/27 11:46:00;;;;;;;3.45;1.45;;;;;;;15.39;60.94;97708.44;5080933;28;20046;-74
2022/05/27 11:49:08;;;;;;;4.20;1.50;;;;;;;15.06;61.41;97711.75;5037860;28;20056;-72
2022/05/27 11:51:47;;;;;;;13.45;2.75;;;;;;;14.99;61.78;97711.00;5073479;28;20045;-71
2022/05/27 11:54:42;;;;;;;5.70;2.10;;;;;;;14.70;62.32;97721.47;5088416;28;20043;-73
2022/05/27 11:57:29;;;;;;;6.40;2.97;;;;;;;14.75;62.57;97715.47;5085186;28;20036;-75
2022/05/27 12:00:10;;;;;;;4.72;2.67;;;;;;;15.01;62.35;97714.97;5094159;28;20044;-76
2022/05/27 12:02:51;;;;;;;4.40;2.28;;;;;;;15.27;61.71;97705.25;5083120;28;20059;-73
2022/05/27 12:05:26;;;;;;;1.92;1.20;;;;;;;15.37;61.52;97708.03;5076869;28;20082;-72
2022/05/27 12:07:55;;;;;;;3.50;1.45;;;;;;;15.50;60.90;97714.78;5084109;28;20422;-68
2022/05/27 12:10:44;;;;;;;5.43;1.90;;;;;;;15.36;61.31;97717.63;5079625;28;20040;-74
2022/05/27 12:13:26;;;;;;;96.18;9.57;;;;;;;15.04;61.32;97719.75;5077706;28;20054;-74
2022/05/27 12:16:12;;;;;;;1.58;0.70;;;;;;;14.83;61.04;97724.66;5073864;28;20055;-75
2022/05/27 12:19:14;;;;;;;1.17;0.80;;;;;;;14.80;61.08;97725.47;5074987;28;20048;-73
2022/05/27 12:21:47;;;;;;;3.42;0.85;;;;;;;14.94;60.46;97715.00;5014587;28;20232;-76
2022/05/27 12:24:47;;;;;;;6.10;0.70;;;;;;;15.08;60.09;97714.16;5073387;28;20799;-72
2022/05/27 12:27:16;;;;;;;1.58;0.98;;;;;;;15.20;60.17;97720.13;5054750;28;20067;-72
2022/05/27 12:29:47;;;;;;;10.37;1.10;;;;;;;15.13;59.51;97717.31;5076062;28;20110;-74
2022/05/27 12:32:16;;;;;;;1.88;1.00;;;;;;;15.02;59.47;97713.78;5089655;28;20109;-73
2022/05/27 12:34:46;;;;;;;1.98;0.93;;;;;;;14.97;59.85;97719.00;5094437;28;20617;-72
2022/05/27 12:37:28;;;;;;;3.88;0.95;;;;;;;15.03;58.28;97717.38;5092224;28;20053;-72
2022/05/27 12:40:29;;;;;;;1.90;1.30;;;;;;;14.88;58.10;97725.03;5073601;28;20139;-72